createdAt,value
2019-01-20T00:01:57.999Z,14.53
2019-01-20T00:04:27.759Z,15.27
2019-01-20T00:06:57.837Z,13.87
2019-01-20T00:09:27.539Z,14.23
2019-01-20T00:11:57.306Z,14.10
2019-01-20T00:14:27.057Z,14.90
2019-01-20T00:16:56.738Z,15.27
2019-01-20T00:19:26.439Z,14.37
2019-01-20T00:21:56.435Z,14.57
2019-01-20T00:24:26.115Z,14.40
2019-01-20T00:26:55.822Z,15.37
2019-01-20T00:29:25.551Z,16.00
2019-01-20T00:31:55.198Z,15.30
2019-01-20T00:34:25.172Z,14.73
2019-01-20T00:36:55.329Z,14.63
2019-01-20T00:39:25.043Z,14.20
2019-01-20T00:41:54.673Z,13.40
2019-01-20T00:44:24.492Z,14.30
2019-01-20T00:46:54.983Z,17.07
2019-01-20T00:49:24.794Z,15.30
2019-01-20T00:51:54.543Z,14.83
2019-01-20T00:54:25.617Z,14.13
2019-01-20T00:56:55.394Z,15.43
2019-01-20T00:59:25.394Z,14.67
2019-01-20T01:01:55.144Z,14.73
2019-01-20T01:04:24.855Z,15.37
2019-01-20T01:06:54.614Z,14.60
2019-01-20T01:09:24.363Z,14.13
2019-01-20T01:11:54.095Z,13.17
2019-01-20T01:14:23.813Z,13.73
2019-01-20T01:16:53.623Z,13.53
2019-01-20T01:19:23.260Z,14.27
2019-01-20T01:21:52.931Z,14.30
2019-01-20T01:24:22.680Z,14.67
2019-01-20T01:26:52.436Z,12.57
2019-01-20T01:29:22.167Z,14.70
2019-01-20T01:31:51.858Z,13.93
2019-01-20T01:34:21.560Z,14.03
2019-01-20T01:36:51.251Z,13.87
2019-01-20T01:39:20.932Z,15.87
2019-01-20T01:41:50.616Z,13.47
2019-01-20T01:44:20.335Z,14.50
2019-01-20T01:46:50.013Z,15.00
2019-01-20T01:49:19.748Z,16.00
2019-01-20T01:51:49.524Z,14.20
2019-01-20T01:54:19.184Z,13.77
2019-01-20T01:56:48.913Z,12.90
2019-01-20T01:59:18.607Z,14.67
2019-01-20T02:01:48.304Z,16.17
2019-01-20T02:04:17.915Z,12.90
2019-01-20T02:06:47.602Z,14.00
2019-01-20T02:09:17.287Z,14.10
2019-01-20T02:11:47.215Z,15.00
2019-01-20T02:14:16.947Z,15.30
2019-01-20T02:16:46.649Z,14.33
2019-01-20T02:19:16.310Z,13.50
2019-01-20T02:21:46.041Z,15.07
2019-01-20T02:24:15.795Z,14.83
2019-01-20T02:26:45.481Z,13.77
2019-01-20T02:29:15.176Z,15.17
2019-01-20T02:31:44.806Z,15.27
2019-01-20T02:34:14.501Z,13.97
2019-01-20T02:36:44.121Z,13.47
2019-01-20T02:39:13.795Z,14.00
2019-01-20T02:41:43.445Z,14.93
2019-01-20T02:44:13.151Z,14.93
2019-01-20T02:46:42.816Z,15.17
2019-01-20T02:49:12.607Z,14.17
2019-01-20T02:51:42.291Z,14.77
2019-01-20T02:54:12.013Z,14.60
2019-01-20T02:56:41.698Z,16.30
2019-01-20T02:59:11.486Z,15.80
2019-01-20T03:01:41.523Z,14.10
2019-01-20T03:04:11.169Z,15.00
2019-01-20T03:06:40.881Z,14.17
2019-01-20T03:09:11.190Z,14.27
2019-01-20T03:11:40.910Z,16.17
2019-01-20T03:14:10.613Z,15.23
2019-01-20T03:16:40.318Z,15.47
2019-01-20T03:19:10.006Z,15.17
2019-01-20T03:21:39.696Z,15.40
2019-01-20T03:24:09.319Z,15.80
2019-01-20T03:26:39.004Z,13.97
2019-01-20T03:29:08.696Z,14.60
2019-01-20T03:31:38.442Z,15.03
2019-01-20T03:34:08.050Z,13.80
2019-01-20T03:36:37.938Z,15.93
2019-01-20T03:39:08.353Z,13.73
2019-01-20T03:41:38.167Z,14.30
2019-01-20T03:44:07.931Z,15.20
2019-01-20T03:46:37.575Z,14.10
2019-01-20T03:49:07.306Z,14.00
2019-01-20T03:51:37.071Z,13.87
2019-01-20T03:54:06.894Z,14.00
2019-01-20T03:56:36.556Z,14.87
2019-01-20T03:59:06.280Z,12.70
2019-01-20T04:01:36.037Z,14.07
2019-01-20T04:04:05.758Z,14.60
2019-01-20T04:06:35.459Z,14.70
2019-01-20T04:09:07.799Z,14.37
2019-01-20T04:11:37.483Z,15.33
2019-01-20T04:14:07.133Z,14.57
2019-01-20T04:16:36.838Z,14.23
2019-01-20T04:19:06.483Z,15.20
2019-01-20T04:21:36.180Z,17.13
2019-01-20T04:24:06.027Z,15.80
2019-01-20T04:26:35.740Z,15.87
2019-01-20T04:29:05.458Z,14.50
2019-01-20T04:31:35.136Z,14.47
2019-01-20T04:34:04.846Z,14.20
2019-01-20T04:36:34.548Z,14.67
2019-01-20T04:39:05.718Z,16.30
2019-01-20T04:41:35.372Z,14.80
2019-01-20T04:44:05.036Z,13.87
2019-01-20T04:46:34.757Z,14.67
2019-01-20T04:49:04.462Z,14.00
2019-01-20T04:51:34.098Z,15.00
2019-01-20T04:54:04.172Z,17.03
2019-01-20T04:56:33.916Z,14.77
2019-01-20T04:59:03.632Z,16.07
2019-01-20T05:01:33.309Z,15.87
2019-01-20T05:04:03.094Z,14.87
2019-01-20T05:06:32.711Z,14.67
2019-01-20T05:09:02.397Z,14.73
2019-01-20T05:11:32.084Z,13.67
2019-01-20T05:14:01.726Z,14.13
2019-01-20T05:16:31.406Z,14.87
2019-01-20T05:19:01.105Z,14.60
2019-01-20T05:21:30.803Z,14.13
2019-01-20T05:24:00.442Z,13.97
2019-01-20T05:26:30.131Z,14.83
2019-01-20T05:28:59.843Z,13.50
2019-01-20T05:31:29.487Z,14.83
2019-01-20T05:33:59.235Z,14.00
2019-01-20T05:36:28.924Z,14.43
2019-01-20T05:38:58.546Z,13.43
2019-01-20T05:41:28.227Z,13.23
2019-01-20T05:43:57.847Z,13.43
2019-01-20T05:46:27.595Z,16.47
2019-01-20T05:48:57.328Z,14.07
2019-01-20T05:51:27.049Z,14.17
2019-01-20T05:53:56.693Z,13.10
2019-01-20T05:56:26.441Z,13.00
2019-01-20T05:58:56.147Z,13.37
2019-01-20T06:01:27.301Z,14.37
2019-01-20T06:03:57.176Z,13.83
2019-01-20T06:06:26.885Z,14.33
2019-01-20T06:08:56.539Z,13.83
2019-01-20T06:11:26.247Z,13.83
2019-01-20T06:13:55.912Z,15.17
2019-01-20T06:16:25.592Z,15.27
2019-01-20T06:18:55.257Z,14.53
2019-01-20T06:21:24.962Z,14.10
2019-01-20T06:23:54.604Z,13.90
2019-01-20T06:26:24.299Z,14.73
2019-01-20T06:28:54.000Z,14.53
2019-01-20T06:31:23.647Z,14.73
2019-01-20T06:33:53.374Z,14.43
2019-01-20T06:36:23.064Z,15.27
2019-01-20T06:38:52.758Z,14.60
2019-01-20T06:41:22.467Z,14.87
2019-01-20T06:43:52.118Z,13.43
2019-01-20T06:46:21.821Z,13.37
2019-01-20T06:48:51.536Z,13.63
2019-01-20T06:51:21.326Z,13.33
2019-01-20T06:53:50.990Z,14.20
2019-01-20T06:56:20.670Z,14.40
2019-01-20T06:58:50.495Z,13.73
2019-01-20T07:01:20.270Z,13.33
2019-01-20T07:03:50.097Z,12.90
2019-01-20T07:06:19.802Z,14.80
2019-01-20T07:08:49.504Z,13.37
2019-01-20T07:11:19.164Z,15.87
2019-01-20T07:13:48.900Z,15.20
2019-01-20T07:16:18.565Z,15.23
2019-01-20T07:18:49.517Z,15.03
2019-01-20T07:21:19.441Z,16.07
2019-01-20T07:23:49.190Z,15.67
2019-01-20T07:26:18.851Z,15.17
2019-01-20T07:28:48.596Z,16.03
2019-01-20T07:31:18.604Z,16.10
2019-01-20T07:33:49.492Z,15.13
2019-01-20T07:36:19.403Z,16.27
2019-01-20T07:38:49.193Z,14.60
2019-01-20T07:41:21.900Z,14.70
2019-01-20T07:43:51.616Z,15.90
2019-01-20T07:46:21.344Z,14.77
2019-01-20T07:48:51.851Z,14.10
2019-01-20T07:51:24.544Z,15.03
2019-01-20T07:53:54.223Z,15.17
2019-01-20T07:56:23.988Z,15.47
2019-01-20T07:58:53.655Z,14.70
2019-01-20T08:01:23.445Z,16.40
2019-01-20T08:03:53.125Z,15.87
2019-01-20T08:06:22.932Z,15.83
2019-01-20T08:08:52.650Z,16.13
2019-01-20T08:11:22.359Z,14.60
2019-01-20T08:13:52.100Z,15.33
2019-01-20T08:16:21.778Z,14.70
2019-01-20T08:18:51.510Z,15.77
2019-01-20T08:21:21.212Z,15.47
2019-01-20T08:23:50.896Z,16.00
2019-01-20T08:26:20.618Z,15.53
2019-01-20T08:28:50.303Z,15.17
2019-01-20T08:31:20.062Z,18.07
2019-01-20T08:33:49.800Z,19.03
2019-01-20T08:36:19.583Z,18.27
2019-01-20T08:38:49.318Z,22.60
2019-01-20T08:41:19.327Z,20.17
2019-01-20T08:43:49.106Z,20.13
2019-01-20T08:46:45.930Z,20.23
2019-01-20T08:49:15.612Z,20.83
2019-01-20T08:51:45.728Z,20.83
2019-01-20T08:54:15.430Z,22.03
2019-01-20T08:56:45.158Z,20.67
2019-01-20T08:59:15.067Z,21.60
2019-01-20T09:01:45.006Z,23.40
2019-01-20T09:04:14.760Z,22.13
2019-01-20T09:06:44.443Z,25.13
2019-01-20T09:09:14.209Z,26.70
2019-01-20T09:11:43.869Z,27.17
2019-01-20T09:14:13.588Z,25.53
2019-01-20T09:16:43.313Z,28.13
2019-01-20T09:19:12.943Z,28.03
2019-01-20T09:21:42.834Z,32.20
2019-01-20T09:24:12.598Z,34.30
2019-01-20T09:26:42.407Z,31.80
2019-01-20T09:29:12.154Z,30.50
2019-01-20T09:31:41.908Z,29.23
2019-01-20T09:34:11.593Z,29.97
2019-01-20T09:36:41.299Z,27.77
2019-01-20T09:39:15.232Z,27.83
2019-01-20T09:41:44.924Z,26.87
2019-01-20T09:44:14.564Z,25.93
2019-01-20T09:46:44.231Z,25.33
2019-01-20T09:49:14.252Z,23.30
2019-01-20T09:51:43.943Z,23.67
2019-01-20T09:54:13.604Z,20.70
2019-01-20T09:56:50.731Z,20.77
2019-01-20T09:59:20.450Z,22.30
2019-01-20T10:01:50.150Z,21.93
2019-01-20T10:04:19.785Z,21.23
2019-01-20T10:06:49.797Z,22.60
2019-01-20T10:09:19.544Z,23.47
2019-01-20T10:11:49.215Z,22.80
2019-01-20T10:14:19.083Z,21.50
2019-01-20T10:16:48.732Z,22.53
2019-01-20T10:19:18.407Z,21.37
2019-01-20T10:21:48.139Z,19.73
2019-01-20T10:24:17.944Z,22.93
2019-01-20T10:26:47.631Z,20.00
2019-01-20T10:29:17.411Z,21.27
2019-01-20T10:31:47.091Z,20.57
2019-01-20T10:34:16.863Z,20.80
2019-01-20T10:36:46.496Z,20.00
2019-01-20T10:39:16.201Z,20.50
2019-01-20T10:41:45.951Z,22.53
2019-01-20T10:44:15.843Z,20.80
2019-01-20T10:46:45.496Z,21.60
2019-01-20T10:49:15.235Z,22.33
2019-01-20T10:51:44.957Z,21.47
2019-01-20T10:54:14.597Z,21.80
2019-01-20T10:56:44.465Z,21.10
2019-01-20T10:59:16.420Z,21.37
2019-01-20T11:01:46.139Z,20.93
2019-01-20T11:04:15.912Z,22.13
2019-01-20T11:06:45.803Z,20.40
2019-01-20T11:09:47.243Z,22.03
2019-01-20T11:12:19.905Z,21.97
2019-01-20T11:14:50.086Z,21.63
2019-01-20T11:17:23.755Z,21.80
2019-01-20T11:19:56.877Z,22.20
2019-01-20T11:22:45.711Z,22.73
2019-01-20T11:25:21.259Z,22.80
2019-01-20T11:27:50.991Z,21.43
2019-01-20T11:30:22.001Z,22.93
2019-01-20T11:32:52.491Z,23.13
2019-01-20T11:35:23.745Z,22.23
2019-01-20T11:37:55.307Z,23.53
2019-01-20T11:43:17.116Z,23.13
2019-01-20T11:45:47.432Z,22.13
2019-01-20T11:48:17.275Z,23.23
2019-01-20T11:50:47.343Z,20.80
2019-01-20T11:53:17.039Z,19.13
2019-01-20T11:55:48.312Z,19.30
2019-01-20T11:58:19.601Z,17.83
2019-01-20T12:00:50.999Z,18.37
2019-01-20T12:03:26.864Z,19.43
2019-01-20T12:06:00.938Z,18.70
2019-01-20T12:08:49.747Z,18.93
2019-01-20T12:11:29.560Z,17.53
2019-01-20T12:14:00.963Z,19.93
2019-01-20T12:16:31.557Z,20.60
2019-01-20T12:19:06.154Z,19.50
2019-01-20T12:21:50.975Z,19.70
2019-01-20T12:24:35.772Z,17.23
2019-01-20T12:27:13.204Z,17.47
2019-01-20T12:29:54.136Z,18.00
2019-01-20T12:32:26.228Z,16.57
2019-01-20T12:34:59.961Z,16.20
2019-01-20T12:37:48.716Z,18.73
2019-01-20T12:40:33.666Z,17.87
2019-01-20T12:43:06.162Z,17.10
2019-01-20T12:45:47.872Z,17.23
2019-01-20T12:48:30.622Z,17.07
2019-01-20T12:51:14.796Z,17.33
2019-01-20T12:53:44.860Z,16.73
2019-01-20T12:56:18.626Z,15.67
2019-01-20T12:58:55.063Z,17.63
2019-01-20T13:01:42.332Z,16.90
2019-01-20T13:04:12.856Z,15.77
2019-01-20T13:06:45.549Z,14.97
2019-01-20T13:09:16.082Z,15.93
2019-01-20T13:11:50.528Z,16.67
2019-01-20T13:14:29.320Z,14.23
2019-01-20T13:20:02.973Z,15.33
2019-01-20T13:22:32.753Z,13.73
2019-01-20T13:25:02.569Z,15.17
2019-01-20T13:27:46.802Z,15.63
2019-01-20T13:30:19.267Z,15.90
2019-01-20T13:32:55.409Z,14.93
2019-01-20T13:35:31.360Z,16.60
2019-01-20T13:38:23.714Z,16.17
2019-01-20T13:41:08.182Z,14.80
2019-01-20T13:43:54.559Z,14.33
2019-01-20T13:46:33.977Z,14.03
2019-01-20T13:49:07.594Z,13.60
2019-01-20T13:51:44.889Z,15.63
2019-01-20T13:54:17.011Z,13.50
2019-01-20T13:56:50.028Z,15.93
2019-01-20T13:59:29.412Z,13.70
2019-01-20T14:02:05.430Z,15.50
2019-01-20T14:04:36.948Z,15.27
2019-01-20T14:07:14.911Z,14.23
2019-01-20T14:09:56.929Z,14.90
2019-01-20T14:12:32.741Z,14.73
2019-01-20T14:15:28.563Z,15.43
2019-01-20T14:18:14.585Z,14.77
2019-01-20T14:20:55.128Z,15.53
2019-01-20T14:23:25.459Z,15.43
2019-01-20T14:25:56.611Z,16.70
2019-01-20T14:28:29.020Z,14.33
2019-01-20T14:30:59.102Z,14.43
2019-01-20T14:33:29.687Z,15.50
2019-01-20T14:36:00.442Z,15.20
2019-01-20T14:38:30.062Z,13.40
2019-01-20T14:41:18.818Z,13.70
2019-01-20T14:43:49.620Z,15.00
2019-01-20T14:46:27.438Z,15.00
2019-01-20T14:48:58.110Z,14.60
2019-01-20T14:51:28.845Z,14.33
2019-01-20T14:53:59.169Z,13.93
2019-01-20T14:56:33.042Z,13.67
2019-01-20T14:59:20.226Z,15.13
2019-01-20T15:02:01.647Z,13.63
2019-01-20T15:04:31.375Z,15.27
2019-01-20T15:07:03.133Z,14.83
2019-01-20T15:09:36.527Z,13.67
2019-01-20T15:12:06.496Z,13.17
2019-01-20T15:14:36.906Z,14.90
2019-01-20T15:17:06.682Z,14.97
2019-01-20T15:19:38.712Z,13.70
2019-01-20T15:22:10.465Z,14.00
2019-01-20T15:24:46.666Z,12.70
2019-01-20T15:27:17.744Z,14.80
2019-01-20T15:29:48.833Z,13.23
2019-01-20T15:32:19.563Z,13.47
2019-01-20T15:35:02.825Z,13.97
2019-01-20T15:37:45.864Z,12.80
2019-01-20T15:40:17.435Z,13.33
2019-01-20T15:42:48.758Z,14.00
2019-01-20T15:45:21.175Z,12.63
2019-01-20T15:47:52.615Z,13.00
2019-01-20T15:50:30.230Z,14.03
2019-01-20T15:53:02.450Z,13.07
2019-01-20T15:55:36.300Z,12.47
2019-01-20T15:58:07.380Z,12.33
2019-01-20T16:00:41.059Z,12.43
2019-01-20T16:03:14.869Z,13.00
2019-01-20T16:05:47.802Z,14.67
2019-01-20T16:08:19.231Z,13.43
2019-01-20T16:10:55.861Z,12.10
2019-01-20T16:13:27.177Z,12.80
2019-01-20T16:15:58.187Z,13.57
2019-01-20T16:18:28.708Z,12.57
2019-01-20T16:20:58.607Z,12.93
2019-01-20T16:23:28.451Z,12.63
2019-01-20T16:25:59.183Z,12.63
2019-01-20T16:28:30.350Z,12.60
2019-01-20T16:31:05.840Z,13.17
2019-01-20T16:33:35.783Z,14.10
2019-01-20T16:36:05.597Z,12.70
2019-01-20T16:38:35.339Z,12.73
2019-01-20T16:41:07.193Z,26.07
2019-01-20T16:43:37.006Z,27.67
2019-01-20T16:46:06.872Z,19.70
2019-01-20T16:48:38.013Z,17.77
2019-01-20T16:51:12.489Z,15.13
2019-01-20T16:53:46.758Z,18.90
2019-01-20T16:56:17.460Z,20.00
2019-01-20T16:58:51.345Z,19.43
2019-01-20T17:01:18.831Z,17.07
2019-01-20T17:03:56.053Z,16.57
2019-01-20T17:06:29.773Z,15.60
2019-01-20T17:08:59.686Z,15.20
2019-01-20T17:11:29.492Z,15.90
2019-01-20T17:13:59.537Z,16.10
2019-01-20T17:16:29.803Z,16.57
2019-01-20T17:19:01.402Z,15.03
2019-01-20T17:21:31.634Z,17.33
2019-01-20T17:24:02.347Z,17.17
2019-01-20T17:26:34.397Z,14.87
2019-01-20T17:29:10.087Z,15.80
2019-01-20T17:31:42.180Z,17.57
2019-01-20T17:34:13.635Z,16.77
2019-01-20T17:36:46.264Z,18.10
2019-01-20T17:39:17.848Z,17.60
2019-01-20T17:41:50.718Z,16.13
2019-01-20T17:44:30.810Z,16.83
2019-01-20T17:47:04.275Z,17.13
2019-01-20T17:49:34.259Z,18.03
2019-01-20T17:52:05.572Z,19.53
2019-01-20T17:54:38.476Z,18.03
2019-01-20T17:57:12.411Z,17.63
2019-01-20T17:59:46.667Z,19.17
2019-01-20T18:02:17.698Z,20.33
2019-01-20T18:04:49.422Z,22.00
2019-01-20T18:07:22.714Z,21.37
2019-01-20T18:10:00.790Z,19.70
2019-01-20T18:12:32.303Z,21.40
2019-01-20T18:15:03.198Z,25.47
2019-01-20T18:17:33.127Z,25.87
2019-01-20T18:20:12.105Z,22.70
2019-01-20T18:22:44.996Z,23.47
2019-01-20T18:25:17.387Z,25.77
2019-01-20T18:27:51.917Z,24.83
2019-01-20T18:30:25.538Z,21.67
2019-01-20T18:32:59.527Z,21.17
2019-01-20T18:35:30.734Z,21.03
2019-01-20T18:38:00.558Z,21.50
2019-01-20T18:40:32.424Z,22.40
2019-01-20T18:43:04.010Z,22.93
2019-01-20T18:45:35.444Z,29.17
2019-01-20T18:48:06.819Z,29.07
2019-01-20T18:50:38.819Z,25.20
2019-01-20T18:53:09.262Z,36.83
2019-01-20T18:55:39.596Z,18.40
2019-01-20T18:58:10.171Z,18.13
2019-01-20T19:00:45.954Z,19.87
2019-01-20T19:03:16.051Z,20.67
2019-01-20T19:05:47.687Z,21.33
2019-01-20T19:08:17.521Z,19.97
2019-01-20T19:10:47.367Z,21.63
2019-01-20T19:13:17.073Z,21.97
2019-01-20T19:15:49.069Z,20.77
2019-01-20T19:18:19.500Z,22.03
2019-01-20T19:20:49.447Z,20.93
2019-01-20T19:23:19.243Z,20.07
2019-01-20T19:25:50.444Z,20.40
2019-01-20T19:28:22.673Z,22.43
2019-01-20T19:30:52.459Z,21.67
2019-01-20T19:33:22.330Z,21.77
2019-01-20T19:35:52.381Z,20.87
2019-01-20T19:38:22.189Z,22.00
2019-01-20T19:40:52.028Z,22.27
2019-01-20T19:43:22.111Z,21.20
2019-01-20T19:45:51.893Z,23.40
2019-01-20T19:48:21.758Z,23.70
2019-01-20T19:50:52.938Z,24.13
2019-01-20T19:53:22.803Z,23.30
2019-01-20T19:55:52.699Z,22.33
2019-01-20T19:58:22.516Z,21.97
2019-01-20T20:01:05.069Z,23.23
2019-01-20T20:03:35.398Z,22.53
2019-01-20T20:06:05.427Z,23.83
2019-01-20T20:08:35.121Z,24.20
2019-01-20T20:11:05.244Z,25.00
2019-01-20T20:13:34.918Z,23.50
2019-01-20T20:16:04.739Z,24.23
2019-01-20T20:18:36.584Z,22.30
2019-01-20T20:21:06.351Z,22.87
2019-01-20T20:23:36.103Z,23.23
2019-01-20T20:26:07.008Z,23.20
2019-01-20T20:28:36.710Z,23.00
2019-01-20T20:31:11.654Z,24.40
2019-01-20T20:33:42.069Z,22.23
2019-01-20T20:36:11.926Z,24.00
2019-01-20T20:38:41.655Z,21.97
2019-01-20T20:41:11.326Z,25.13
2019-01-20T20:43:41.112Z,21.93
2019-01-20T20:46:12.347Z,22.80
2019-01-20T20:48:43.218Z,25.10
2019-01-20T20:51:13.032Z,23.80
2019-01-20T20:53:42.811Z,25.30
2019-01-20T20:56:12.859Z,24.00
2019-01-20T20:58:42.553Z,23.83
2019-01-20T21:01:12.258Z,25.90
2019-01-20T21:03:42.402Z,25.40
2019-01-20T21:06:12.164Z,24.13
2019-01-20T21:08:41.815Z,24.20
2019-01-20T21:11:11.519Z,23.40
2019-01-20T21:13:41.632Z,25.57
2019-01-20T21:16:11.381Z,26.50
2019-01-20T21:18:41.151Z,24.67
2019-01-20T21:21:10.882Z,26.60
2019-01-20T21:23:40.607Z,23.63
2019-01-20T21:26:10.281Z,23.87
2019-01-20T21:28:40.006Z,24.83
2019-01-20T21:31:09.661Z,25.67
2019-01-20T21:33:40.668Z,24.83
2019-01-20T21:36:10.474Z,24.47
2019-01-20T21:38:40.165Z,24.43
2019-01-20T21:41:09.975Z,24.07
2019-01-20T21:43:39.685Z,24.97
2019-01-20T21:46:09.331Z,22.07
2019-01-20T21:48:41.462Z,24.03
2019-01-20T21:51:11.437Z,24.57
2019-01-20T21:53:41.208Z,24.77
2019-01-20T21:56:10.948Z,25.93
2019-01-20T21:58:40.618Z,24.33
2019-01-20T22:01:10.330Z,26.13
2019-01-20T22:03:40.067Z,26.10
2019-01-20T22:06:09.770Z,25.07
2019-01-20T22:08:39.486Z,25.57
2019-01-20T22:11:09.179Z,24.10
2019-01-20T22:13:38.909Z,24.60
2019-01-20T22:16:08.644Z,24.70
2019-01-20T22:18:38.348Z,24.07
2019-01-20T22:21:11.179Z,22.33
2019-01-20T22:23:40.852Z,27.13
2019-01-20T22:26:10.526Z,25.00
2019-01-20T22:28:40.490Z,25.50
2019-01-20T22:31:10.147Z,25.37
2019-01-20T22:33:39.881Z,23.17
2019-01-20T22:36:09.522Z,23.23
2019-01-20T22:38:39.886Z,24.87
2019-01-20T22:41:10.135Z,25.90
2019-01-20T22:43:39.958Z,22.97
2019-01-20T22:46:09.704Z,24.17
2019-01-20T22:48:39.399Z,21.43
2019-01-20T22:51:09.131Z,21.67
2019-01-20T22:53:38.894Z,23.10
2019-01-20T22:56:08.537Z,23.97
2019-01-20T22:58:38.361Z,21.87
2019-01-20T23:01:13.988Z,22.70
2019-01-20T23:03:43.655Z,21.03
2019-01-20T23:06:13.343Z,20.07
2019-01-20T23:08:43.113Z,22.10
2019-01-20T23:11:12.805Z,23.17
2019-01-20T23:13:42.506Z,21.37
2019-01-20T23:16:12.241Z,22.47
2019-01-20T23:18:41.993Z,23.13
2019-01-20T23:21:11.667Z,23.27
2019-01-20T23:23:41.406Z,21.57
2019-01-20T23:26:11.128Z,22.70
2019-01-20T23:28:40.856Z,23.40
2019-01-20T23:31:10.700Z,24.27
2019-01-20T23:33:40.395Z,22.77
2019-01-20T23:36:10.108Z,24.20
2019-01-20T23:38:42.304Z,22.97
2019-01-20T23:41:12.046Z,22.73
2019-01-20T23:43:41.668Z,21.80
2019-01-20T23:46:11.373Z,21.17
2019-01-20T23:48:41.004Z,22.50
2019-01-20T23:51:10.871Z,23.30
2019-01-20T23:53:40.617Z,21.20
2019-01-20T23:56:10.422Z,22.47
2019-01-20T23:58:40.224Z,21.33
